createdAt,value
2023-03-29T00:00:08.397Z,1016.06
2023-03-29T00:05:08.455Z,1015.82
2023-03-29T00:10:09.268Z,1015.75
2023-03-29T00:15:08.333Z,1015.77
2023-03-29T00:20:08.398Z,1015.72
2023-03-29T00:25:08.436Z,1015.69
2023-03-29T00:30:08.515Z,1015.49
2023-03-29T00:35:08.570Z,1015.46
2023-03-29T00:40:08.654Z,1015.29
2023-03-29T00:45:08.727Z,1015.3
2023-03-29T00:50:18.784Z,1015.52
2023-03-29T00:55:08.787Z,1015.38
2023-03-29T01:00:08.933Z,1015.34
2023-03-29T01:05:07.929Z,1015.18
2023-03-29T01:10:08.006Z,1015.09
2023-03-29T01:15:08.277Z,1015.07
2023-03-29T01:20:08.324Z,1014.97
2023-03-29T01:25:08.380Z,1014.99
2023-03-29T01:30:08.429Z,1014.94
2023-03-29T01:35:09.796Z,1014.87
2023-03-29T01:40:08.853Z,1014.81
2023-03-29T01:45:10.915Z,1014.71
2023-03-29T01:50:09.009Z,1014.56
2023-03-29T01:55:08.095Z,1014.54
2023-03-29T02:05:08.178Z,1014.47
2023-03-29T02:10:08.264Z,1014.53
2023-03-29T02:15:08.320Z,1014.47
2023-03-29T02:20:08.434Z,1014.47
2023-03-29T02:25:08.479Z,1014.49
2023-03-29T02:30:08.619Z,1014.36
2023-03-29T02:35:08.652Z,1014.37
2023-03-29T02:40:08.718Z,1014.22
2023-03-29T02:45:08.767Z,1014.26
2023-03-29T02:50:08.830Z,1014.15
2023-03-29T02:55:08.896Z,1014.16
2023-03-29T03:00:10.594Z,1014.12
2023-03-29T03:05:08.760Z,1014.12
2023-03-29T03:10:08.773Z,1014.14
2023-03-29T03:15:08.838Z,1014.09
2023-03-29T03:20:08.868Z,1014.05
2023-03-29T03:25:08.912Z,1014.07
2023-03-29T03:30:08.931Z,1014.09
2023-03-29T03:35:07.960Z,1013.99
2023-03-29T03:40:08.007Z,1013.92
2023-03-29T03:45:08.048Z,1013.92
2023-03-29T03:50:08.120Z,1013.88
2023-03-29T03:55:08.192Z,1013.71
2023-03-29T04:00:08.202Z,1013.64
2023-03-29T04:05:02.360Z,1013.64
2023-03-29T04:10:02.529Z,1013.67
2023-03-29T04:15:02.880Z,1013.6
2023-03-29T04:20:03.148Z,1013.66
2023-03-29T04:25:02.276Z,1013.66
2023-03-29T04:30:02.663Z,1013.57
2023-03-29T04:35:02.881Z,1013.54
2023-03-29T04:40:03.151Z,1013.45
2023-03-29T04:45:02.474Z,1013.44
2023-03-29T04:50:02.714Z,1013.47
2023-03-29T04:55:02.909Z,1013.5
2023-03-29T05:00:03.216Z,1013.54
2023-03-29T05:05:02.407Z,1013.5
2023-03-29T05:10:02.620Z,1013.38
2023-03-29T05:15:02.764Z,1013.37
2023-03-29T05:20:02.932Z,1013.28
2023-03-29T05:25:03.110Z,1013.34
2023-03-29T05:30:02.279Z,1013.39
2023-03-29T05:35:02.500Z,1013.3
2023-03-29T05:40:05.555Z,1013.18
2023-03-29T05:45:02.500Z,1013.23
2023-03-29T05:50:02.853Z,1013.13
2023-03-29T05:55:02.938Z,1013.07
2023-03-29T06:00:02.227Z,1013.21
2023-03-29T06:05:02.601Z,1013.28
2023-03-29T06:10:02.809Z,1013.19
2023-03-29T06:15:03.002Z,1013.25
2023-03-29T06:20:02.278Z,1013.27
2023-03-29T06:25:02.492Z,1013.31
2023-03-29T06:30:02.703Z,1013.34
2023-03-29T06:35:02.953Z,1013.28
2023-03-29T06:40:02.252Z,1013.26
2023-03-29T06:45:02.509Z,1013.26
2023-03-29T06:50:02.834Z,1013.29
2023-03-29T06:55:02.988Z,1013.25
2023-03-29T07:00:02.166Z,1013.3
2023-03-29T07:05:02.450Z,1013.27
2023-03-29T07:10:02.741Z,1013.44
2023-03-29T07:15:02.920Z,1013.41
2023-03-29T07:20:03.090Z,1013.5
2023-03-29T07:25:02.232Z,1013.48
2023-03-29T07:30:03.140Z,1013.48
2023-03-29T07:35:02.311Z,1013.55
2023-03-29T07:40:02.514Z,1013.6
2023-03-29T07:45:02.644Z,1013.68
2023-03-29T07:50:02.803Z,1013.69
2023-03-29T07:55:03.072Z,1013.56
2023-03-29T08:00:02.278Z,1013.51
2023-03-29T08:05:02.736Z,1013.48
2023-03-29T08:10:02.997Z,1013.49
2023-03-29T08:15:02.279Z,1013.52
2023-03-29T08:20:02.560Z,1013.55
2023-03-29T08:25:02.785Z,1013.53
2023-03-29T08:30:03.260Z,1013.57
2023-03-29T08:35:02.479Z,1013.56
2023-03-29T08:40:02.737Z,1013.52
2023-03-29T08:45:12.901Z,1013.52
2023-03-29T08:50:03.154Z,1013.55
2023-03-29T08:55:02.451Z,1013.39
2023-03-29T09:00:02.664Z,1013.37
2023-03-29T09:05:02.885Z,1013.51
2023-03-29T09:10:04.775Z,1013.46
2023-03-29T09:15:03.037Z,1013.45
2023-03-29T09:20:02.123Z,1013.48
2023-03-29T09:25:13.266Z,1013.34
2023-03-29T09:30:02.782Z,1013.43
2023-03-29T09:35:02.926Z,1013.46
2023-03-29T09:40:04.974Z,1013.33
2023-03-29T09:45:02.419Z,1013.46
2023-03-29T09:50:02.587Z,1013.42
2023-03-29T09:55:02.829Z,1013.35
2023-03-29T10:00:02.167Z,1013.34
2023-03-29T10:05:02.411Z,1013.41
2023-03-29T10:10:02.608Z,1013.33
2023-03-29T10:15:02.884Z,1013.35
2023-03-29T10:20:04.363Z,1013.34
2023-03-29T10:25:02.810Z,1013.34
2023-03-29T10:30:03.102Z,1013.32
2023-03-29T10:35:02.388Z,1013.29
2023-03-29T10:40:02.672Z,1013.29
2023-03-29T10:45:02.853Z,1013.19
2023-03-29T10:50:03.153Z,1013.19
2023-03-29T10:55:02.311Z,1013.19
2023-03-29T11:00:02.497Z,1013.19
2023-03-29T11:05:08.583Z,1013.19
2023-03-29T11:10:02.815Z,1013.01
2023-03-29T11:15:03.179Z,1012.94
2023-03-29T11:20:04.510Z,1012.98
2023-03-29T11:25:02.450Z,1013.05
2023-03-29T11:30:02.651Z,1013.11
2023-03-29T11:35:13.087Z,1013.14
2023-03-29T11:40:02.341Z,1013.15
2023-03-29T11:45:02.560Z,1013.11
2023-03-29T11:50:02.694Z,1012.97
2023-03-29T11:55:02.795Z,1012.92
2023-03-29T12:00:03.038Z,1012.77
2023-03-29T12:05:02.285Z,1012.7
2023-03-29T12:10:04.450Z,1012.59
2023-03-29T12:15:02.705Z,1012.46
2023-03-29T12:20:02.833Z,1012.47
2023-03-29T12:25:03.034Z,1012.57
2023-03-29T12:30:02.272Z,1012.5
2023-03-29T12:35:02.499Z,1012.5
2023-03-29T12:40:02.675Z,1012.5
2023-03-29T12:45:03.017Z,1012.44
2023-03-29T12:50:02.231Z,1012.47
2023-03-29T12:55:02.383Z,1012.46
2023-03-29T13:00:02.519Z,1012.42
2023-03-29T13:05:02.764Z,1012.45
2023-03-29T13:10:02.970Z,1012.45
2023-03-29T13:15:02.213Z,1012.2
2023-03-29T13:20:02.378Z,1012.26
2023-03-29T13:25:02.596Z,1012.37
2023-03-29T13:30:02.794Z,1012.31
2023-03-29T13:35:12.979Z,1012.16
2023-03-29T13:40:02.358Z,1011.96
2023-03-29T13:45:02.489Z,1012.01
2023-03-29T13:50:02.793Z,1011.99
2023-03-29T13:55:03.089Z,1011.89
2023-03-29T14:00:02.281Z,1011.72
2023-03-29T14:05:02.466Z,1011.55
2023-03-29T14:10:02.568Z,1011.42
2023-03-29T14:15:02.653Z,1011.41
2023-03-29T14:20:03.055Z,1011.41
2023-03-29T14:25:02.284Z,1011.27
2023-03-29T14:30:02.397Z,1011.27
2023-03-29T14:35:02.565Z,1011.27
2023-03-29T14:40:02.789Z,1011.17
2023-03-29T14:45:03.056Z,1011.13
2023-03-29T14:50:02.180Z,1011.1
2023-03-29T14:55:02.378Z,1011.08
2023-03-29T15:00:02.568Z,1010.98
2023-03-29T15:05:02.950Z,1010.81
2023-03-29T15:10:02.242Z,1010.77
2023-03-29T15:15:02.534Z,1010.77
2023-03-29T15:20:02.910Z,1010.77
2023-03-29T15:25:03.144Z,1010.59
2023-03-29T15:30:02.451Z,1010.4
2023-03-29T15:35:02.647Z,1010.36
2023-03-29T15:40:02.903Z,1010.29
2023-03-29T15:45:03.164Z,1010.15
2023-03-29T15:50:02.443Z,1010.15
2023-03-29T15:55:02.676Z,1010.06
2023-03-29T16:00:02.885Z,1009.87
2023-03-29T16:05:03.104Z,1009.94
2023-03-29T16:10:02.182Z,1009.86
2023-03-29T16:15:02.424Z,1009.65
2023-03-29T16:20:02.690Z,1009.61
2023-03-29T16:25:02.849Z,1009.58
2023-03-29T16:30:03.024Z,1009.52
2023-03-29T16:35:02.294Z,1009.49
2023-03-29T16:40:02.467Z,1009.45
2023-03-29T16:45:02.687Z,1009.45
2023-03-29T16:50:02.935Z,1009.24
2023-03-29T16:55:02.235Z,1009.12
2023-03-29T17:00:02.967Z,1009.07
2023-03-29T17:05:02.154Z,1009.04
2023-03-29T17:10:02.306Z,1009.12
2023-03-29T17:15:02.791Z,1009.07
2023-03-29T17:20:03.014Z,1009.07
2023-03-29T17:25:02.257Z,1009.1
2023-03-29T17:30:02.325Z,1008.95
2023-03-29T17:35:02.495Z,1008.91
2023-03-29T17:40:02.756Z,1008.85
2023-03-29T17:45:02.861Z,1008.81
2023-03-29T17:50:03.028Z,1008.78
2023-03-29T17:55:02.312Z,1008.72
2023-03-29T18:00:02.609Z,1008.72
2023-03-29T18:05:02.820Z,1008.41
2023-03-29T18:10:02.956Z,1008.32
2023-03-29T18:15:02.293Z,1008.35
2023-03-29T18:20:02.558Z,1008.19
2023-03-29T18:25:02.832Z,1008.16
2023-03-29T18:30:03.047Z,1008.09
2023-03-29T18:35:02.339Z,1008.09
2023-03-29T18:40:02.527Z,1008.09
2023-03-29T18:45:02.829Z,1008.12
2023-03-29T18:50:03.163Z,1008.01
2023-03-29T18:55:02.281Z,1008.04
2023-03-29T19:00:02.459Z,1008.02
2023-03-29T19:05:02.573Z,1008.04
2023-03-29T19:10:04.212Z,1007.97
2023-03-29T19:15:02.470Z,1008.03
2023-03-29T19:20:02.757Z,1007.98
2023-03-29T19:25:02.956Z,1008.0
2023-03-29T19:30:02.115Z,1007.89
2023-03-29T19:35:02.290Z,1007.84
2023-03-29T19:40:02.444Z,1007.74
2023-03-29T19:45:02.673Z,1007.69
2023-03-29T19:50:02.940Z,1007.79
2023-03-29T19:55:02.099Z,1007.8
2023-03-29T20:00:02.210Z,1007.63
2023-03-29T20:05:02.394Z,1007.61
2023-03-29T20:10:02.608Z,1007.58
2023-03-29T20:15:02.842Z,1007.51
2023-03-29T20:20:04.825Z,1007.46
2023-03-29T20:25:03.019Z,1007.37
2023-03-29T20:30:02.253Z,1007.38
2023-03-29T20:35:02.368Z,1007.26
2023-03-29T20:40:02.601Z,1007.11
2023-03-29T20:45:02.772Z,1007.05
2023-03-29T20:50:02.960Z,1006.98
2023-03-29T20:55:02.116Z,1006.99
2023-03-29T21:00:02.237Z,1006.83
2023-03-29T21:05:15.262Z,1006.72
2023-03-29T21:10:08.376Z,1006.7
2023-03-29T21:15:08.432Z,1006.56
2023-03-29T21:20:08.486Z,1006.55
2023-03-29T21:25:08.563Z,1006.46
2023-03-29T21:30:08.599Z,1006.29
2023-03-29T21:35:08.637Z,1006.29
2023-03-29T21:40:08.680Z,1006.2
2023-03-29T21:45:08.756Z,1006.06
2023-03-29T21:50:08.832Z,1006.08
2023-03-29T21:55:08.840Z,1005.91
2023-03-29T22:00:08.882Z,1005.96
2023-03-29T22:05:08.907Z,1005.96
2023-03-29T22:10:08.964Z,1005.76
2023-03-29T22:15:07.971Z,1005.76
2023-03-29T22:20:08.064Z,1005.87
2023-03-29T22:25:08.098Z,1005.66
2023-03-29T22:30:08.108Z,1005.76
2023-03-29T22:35:08.183Z,1005.58
2023-03-29T22:40:08.231Z,1005.6
2023-03-29T22:45:08.248Z,1005.69
2023-03-29T22:50:08.343Z,1005.55
2023-03-29T22:55:08.423Z,1005.48
2023-03-29T23:01:12.238Z,1005.37
2023-03-29T23:05:08.562Z,1005.4
2023-03-29T23:10:08.599Z,1005.38
2023-03-29T23:15:08.646Z,1005.29
2023-03-29T23:20:08.683Z,1005.26
2023-03-29T23:25:08.737Z,1005.24
2023-03-29T23:30:08.801Z,1005.24
2023-03-29T23:35:08.871Z,1005.18
2023-03-29T23:40:08.922Z,1005.14
2023-03-29T23:45:08.993Z,1005.08
2023-03-29T23:50:08.051Z,1005.09
2023-03-29T23:55:08.062Z,1004.96
